Terminal Aerodrome Forecast
Issued by NWS Cleveland, OH

Home | Current Version | Previous Version | Text Only | Print | Product List | Glossary On
Versions: 1 2 3 4 5 6 7 8 9 10 11 12 13 14 15
000
FTUS41 KCLE 010526
TAFTOL
TAF
KTOL 010526Z 0106/0206 06005KT 4SM BR OVC005
      TEMPO 0106/0108 -SHRA
     FM010800 06008KT 3SM -DZ BR OVC005
     FM011500 01006KT 4SM BR OVC007
     FM012000 03008KT 6SM BR OVC015
     FM020100 06010KT 4SM -RA BR OVC007=

USA.gov is the U.S. government's official web portal to all federal, state and local government web resources and services.